sensor_id;sensor_type;location;lat;lon;timestamp;pressure;altitude;pressure_sealevel;temperature;humidity
11041;BME280;5573;49.592;8.662;2023-08-08T00:01:29;99988.84;;;13.09;83.06
11041;BME280;5573;49.592;8.662;2023-08-08T00:03:57;99999.50;;;13.16;83.60
11041;BME280;5573;49.592;8.662;2023-08-08T00:06:25;100000.41;;;13.28;80.03
11041;BME280;5573;49.592;8.662;2023-08-08T00:08:53;100005.97;;;13.26;82.26
11041;BME280;5573;49.592;8.662;2023-08-08T00:11:21;100014.78;;;13.45;78.54
11041;BME280;5573;49.592;8.662;2023-08-08T00:13:49;100015.13;;;13.67;76.15
11041;BME280;5573;49.592;8.662;2023-08-08T00:16:17;100008.59;;;13.81;74.97
11041;BME280;5573;49.592;8.662;2023-08-08T00:18:46;100014.66;;;13.88;76.10
11041;BME280;5573;49.592;8.662;2023-08-08T00:21:16;100017.56;;;13.86;75.57
11041;BME280;5573;49.592;8.662;2023-08-08T00:23:44;100011.28;;;13.63;80.71
11041;BME280;5573;49.592;8.662;2023-08-08T00:26:12;100008.16;;;13.47;78.46
11041;BME280;5573;49.592;8.662;2023-08-08T00:28:40;100003.91;;;13.28;79.43
11041;BME280;5573;49.592;8.662;2023-08-08T00:31:08;100002.75;;;13.18;81.59
11041;BME280;5573;49.592;8.662;2023-08-08T00:33:37;99993.94;;;13.17;80.70
11041;BME280;5573;49.592;8.662;2023-08-08T00:36:06;99995.72;;;13.23;79.95
11041;BME280;5573;49.592;8.662;2023-08-08T00:38:34;99997.31;;;13.06;81.14
11041;BME280;5573;49.592;8.662;2023-08-08T00:41:02;99991.50;;;12.91;83.71
11041;BME280;5573;49.592;8.662;2023-08-08T00:43:31;99990.75;;;12.84;82.24
11041;BME280;5573;49.592;8.662;2023-08-08T00:45:59;99983.97;;;12.63;85.59
11041;BME280;5573;49.592;8.662;2023-08-08T00:48:27;99984.13;;;12.43;86.70
11041;BME280;5573;49.592;8.662;2023-08-08T00:50:54;99996.72;;;12.36;87.54
11041;BME280;5573;49.592;8.662;2023-08-08T00:53:23;100000.97;;;12.19;87.33
11041;BME280;5573;49.592;8.662;2023-08-08T00:55:53;99995.72;;;12.06;87.76
11041;BME280;5573;49.592;8.662;2023-08-08T00:58:21;99991.94;;;11.89;88.76
11041;BME280;5573;49.592;8.662;2023-08-08T01:00:49;99981.31;;;11.69;89.87
11041;BME280;5573;49.592;8.662;2023-08-08T01:03:19;99983.59;;;11.65;90.10
11041;BME280;5573;49.592;8.662;2023-08-08T01:05:49;99985.34;;;11.53;90.84
11041;BME280;5573;49.592;8.662;2023-08-08T01:08:25;99977.72;;;11.50;91.36
11041;BME280;5573;49.592;8.662;2023-08-08T01:10:54;99984.72;;;11.51;90.95
11041;BME280;5573;49.592;8.662;2023-08-08T01:13:25;99979.81;;;11.48;90.41
11041;BME280;5573;49.592;8.662;2023-08-08T01:15:55;99982.28;;;11.43;91.24
11041;BME280;5573;49.592;8.662;2023-08-08T01:18:25;99989.22;;;11.57;90.32
11041;BME280;5573;49.592;8.662;2023-08-08T01:20:56;99992.78;;;11.32;91.19
11041;BME280;5573;49.592;8.662;2023-08-08T01:23:30;99987.06;;;11.28;91.82
11041;BME280;5573;49.592;8.662;2023-08-08T01:26:02;99988.09;;;11.27;91.26
11041;BME280;5573;49.592;8.662;2023-08-08T01:28:31;99987.47;;;11.25;91.53
11041;BME280;5573;49.592;8.662;2023-08-08T01:30:59;99973.00;;;11.08;91.74
11041;BME280;5573;49.592;8.662;2023-08-08T01:33:26;99972.59;;;11.04;92.28
11041;BME280;5573;49.592;8.662;2023-08-08T01:36:00;99971.97;;;11.02;92.48
11041;BME280;5573;49.592;8.662;2023-08-08T01:38:32;99972.41;;;10.93;92.63
11041;BME280;5573;49.592;8.662;2023-08-08T01:41:04;99973.84;;;10.95;92.83
11041;BME280;5573;49.592;8.662;2023-08-08T01:43:33;99968.94;;;10.92;93.41
11041;BME280;5573;49.592;8.662;2023-08-08T01:46:02;99979.78;;;10.91;93.38
11041;BME280;5573;49.592;8.662;2023-08-08T01:48:30;99976.94;;;10.86;93.06
11041;BME280;5573;49.592;8.662;2023-08-08T01:50:58;99975.31;;;10.85;93.19
11041;BME280;5573;49.592;8.662;2023-08-08T01:53:26;99985.97;;;10.85;92.79
11041;BME280;5573;49.592;8.662;2023-08-08T01:55:54;99979.22;;;10.82;93.45
11041;BME280;5573;49.592;8.662;2023-08-08T01:58:23;99979.44;;;10.74;93.46
11041;BME280;5573;49.592;8.662;2023-08-08T02:00:51;99981.91;;;10.76;93.10
11041;BME280;5573;49.592;8.662;2023-08-08T02:03:19;99972.25;;;10.81;93.67
11041;BME280;5573;49.592;8.662;2023-08-08T02:05:47;99971.81;;;10.84;94.09
11041;BME280;5573;49.592;8.662;2023-08-08T02:08:15;99973.44;;;10.92;94.43
11041;BME280;5573;49.592;8.662;2023-08-08T02:10:43;99974.22;;;11.12;94.04
11041;BME280;5573;49.592;8.662;2023-08-08T02:13:11;99972.53;;;11.17;93.44
11041;BME280;5573;49.592;8.662;2023-08-08T02:15:40;99971.72;;;11.17;93.30
11041;BME280;5573;49.592;8.662;2023-08-08T02:18:08;99968.03;;;11.18;93.29
11041;BME280;5573;49.592;8.662;2023-08-08T02:20:37;99966.22;;;11.12;93.02
11041;BME280;5573;49.592;8.662;2023-08-08T02:23:05;99972.53;;;11.17;93.46
11041;BME280;5573;49.592;8.662;2023-08-08T02:25:33;99971.91;;;11.22;93.54
11041;BME280;5573;49.592;8.662;2023-08-08T02:28:01;99966.63;;;11.15;93.29
11041;BME280;5573;49.592;8.662;2023-08-08T02:30:29;99970.31;;;11.14;93.19
11041;BME280;5573;49.592;8.662;2023-08-08T02:32:58;99968.09;;;11.05;93.36
11041;BME280;5573;49.592;8.662;2023-08-08T02:35:26;99966.88;;;11.01;93.47
11041;BME280;5573;49.592;8.662;2023-08-08T02:37:54;99955.97;;;11.02;93.59
11041;BME280;5573;49.592;8.662;2023-08-08T02:40:22;99959.91;;;10.93;93.66
11041;BME280;5573;49.592;8.662;2023-08-08T02:42:50;99962.78;;;10.92;93.94
11041;BME280;5573;49.592;8.662;2023-08-08T02:45:19;99970.19;;;10.90;94.35
11041;BME280;5573;49.592;8.662;2023-08-08T02:47:46;99964.59;;;11.04;94.46
11041;BME280;5573;49.592;8.662;2023-08-08T02:50:16;99962.50;;;11.13;93.71
11041;BME280;5573;49.592;8.662;2023-08-08T02:52:44;99965.41;;;11.05;94.07
11041;BME280;5573;49.592;8.662;2023-08-08T02:55:12;99956.13;;;11.27;93.09
11041;BME280;5573;49.592;8.662;2023-08-08T02:57:41;99962.50;;;11.19;93.22
11041;BME280;5573;49.592;8.662;2023-08-08T03:00:10;99961.72;;;11.12;93.68
11041;BME280;5573;49.592;8.662;2023-08-08T03:02:41;99944.28;;;11.03;93.49
11041;BME280;5573;49.592;8.662;2023-08-08T03:05:09;99949.81;;;11.08;93.70
11041;BME280;5573;49.592;8.662;2023-08-08T03:07:39;99952.50;;;11.02;93.84
11041;BME280;5573;49.592;8.662;2023-08-08T03:10:07;99953.53;;;10.94;93.95
11041;BME280;5573;49.592;8.662;2023-08-08T03:12:36;99952.50;;;11.02;93.50
11041;BME280;5573;49.592;8.662;2023-08-08T03:15:07;99952.88;;;11.05;93.54
11041;BME280;5573;49.592;8.662;2023-08-08T03:17:36;99945.97;;;10.98;93.90
11041;BME280;5573;49.592;8.662;2023-08-08T03:20:05;99957.38;;;11.18;92.33
11041;BME280;5573;49.592;8.662;2023-08-08T03:22:33;99957.44;;;11.43;90.92
11041;BME280;5573;49.592;8.662;2023-08-08T03:25:04;99954.22;;;11.79;88.42
11041;BME280;5573;49.592;8.662;2023-08-08T03:27:33;99946.41;;;11.77;88.86
11041;BME280;5573;49.592;8.662;2023-08-08T03:30:01;99945.66;;;11.63;88.78
11041;BME280;5573;49.592;8.662;2023-08-08T03:32:36;99957.31;;;11.76;87.99
11041;BME280;5573;49.592;8.662;2023-08-08T03:35:04;99962.63;;;11.82;87.83
11041;BME280;5573;49.592;8.662;2023-08-08T03:37:33;99961.63;;;11.70;88.60
11041;BME280;5573;49.592;8.662;2023-08-08T03:40:01;99961.88;;;11.62;88.98
11041;BME280;5573;49.592;8.662;2023-08-08T03:42:31;99958.63;;;11.60;88.45
11041;BME280;5573;49.592;8.662;2023-08-08T03:44:59;99962.03;;;11.74;88.21
11041;BME280;5573;49.592;8.662;2023-08-08T03:47:27;99966.84;;;11.52;89.63
11041;BME280;5573;49.592;8.662;2023-08-08T03:49:55;99953.59;;;11.32;90.13
11041;BME280;5573;49.592;8.662;2023-08-08T03:52:24;99951.78;;;11.26;90.34
11041;BME280;5573;49.592;8.662;2023-08-08T03:54:52;99959.75;;;11.33;90.27
11041;BME280;5573;49.592;8.662;2023-08-08T03:57:21;99962.69;;;11.18;90.82
11041;BME280;5573;49.592;8.662;2023-08-08T03:59:51;99957.16;;;11.13;91.13
11041;BME280;5573;49.592;8.662;2023-08-08T04:02:19;99950.19;;;11.18;90.84
11041;BME280;5573;49.592;8.662;2023-08-08T04:04:47;99956.47;;;11.37;90.20
11041;BME280;5573;49.592;8.662;2023-08-08T04:07:15;99961.00;;;11.30;90.16
11041;BME280;5573;49.592;8.662;2023-08-08T04:09:42;99969.25;;;11.22;91.30
11041;BME280;5573;49.592;8.662;2023-08-08T04:12:10;99962.09;;;11.16;91.35
11041;BME280;5573;49.592;8.662;2023-08-08T04:14:38;99958.00;;;11.20;91.01
11041;BME280;5573;49.592;8.662;2023-08-08T04:17:08;99954.34;;;11.08;91.24
11041;BME280;5573;49.592;8.662;2023-08-08T04:19:36;99962.56;;;11.00;92.15
11041;BME280;5573;49.592;8.662;2023-08-08T04:22:03;99960.31;;;10.97;92.59
11041;BME280;5573;49.592;8.662;2023-08-08T04:24:31;99960.34;;;10.90;92.34
11041;BME280;5573;49.592;8.662;2023-08-08T04:26:59;99956.25;;;10.81;92.75
11041;BME280;5573;49.592;8.662;2023-08-08T04:29:26;99952.09;;;10.98;93.03
11041;BME280;5573;49.592;8.662;2023-08-08T04:31:54;99964.94;;;11.21;91.74
11041;BME280;5573;49.592;8.662;2023-08-08T04:34:23;99962.91;;;11.23;91.75
11041;BME280;5573;49.592;8.662;2023-08-08T04:36:51;99963.31;;;11.20;91.96
11041;BME280;5573;49.592;8.662;2023-08-08T04:39:19;99965.75;;;11.22;91.60
11041;BME280;5573;49.592;8.662;2023-08-08T04:41:48;99961.91;;;11.11;91.93
11041;BME280;5573;49.592;8.662;2023-08-08T04:44:15;99957.22;;;11.00;92.21
11041;BME280;5573;49.592;8.662;2023-08-08T04:46:43;99969.53;;;11.01;92.35
11041;BME280;5573;49.592;8.662;2023-08-08T04:49:11;99962.34;;;11.01;92.59
11041;BME280;5573;49.592;8.662;2023-08-08T04:51:40;99965.81;;;11.02;92.76
11041;BME280;5573;49.592;8.662;2023-08-08T04:54:08;99966.25;;;10.92;93.32
11041;BME280;5573;49.592;8.662;2023-08-08T04:56:36;99970.50;;;11.19;92.28
11041;BME280;5573;49.592;8.662;2023-08-08T04:59:04;99981.53;;;11.30;92.03
11041;BME280;5573;49.592;8.662;2023-08-08T05:01:31;99976.38;;;11.28;91.79
11041;BME280;5573;49.592;8.662;2023-08-08T05:03:59;99979.66;;;11.37;91.91
11041;BME280;5573;49.592;8.662;2023-08-08T05:06:27;99968.81;;;11.25;91.60
11041;BME280;5573;49.592;8.662;2023-08-08T05:08:56;99971.91;;;11.22;91.95
11041;BME280;5573;49.592;8.662;2023-08-08T05:11:24;99966.81;;;11.14;91.99
11041;BME280;5573;49.592;8.662;2023-08-08T05:13:52;99954.28;;;11.21;92.13
11041;BME280;5573;49.592;8.662;2023-08-08T05:16:20;99958.53;;;11.29;92.10
11041;BME280;5573;49.592;8.662;2023-08-08T05:18:49;99966.94;;;11.32;92.12
11041;BME280;5573;49.592;8.662;2023-08-08T05:21:17;99963.91;;;11.22;92.14
11041;BME280;5573;49.592;8.662;2023-08-08T05:23:44;99965.06;;;11.39;92.11
11041;BME280;5573;49.592;8.662;2023-08-08T05:26:15;99966.81;;;11.58;91.27
11041;BME280;5573;49.592;8.662;2023-08-08T05:28:43;99971.69;;;12.06;87.78
11041;BME280;5573;49.592;8.662;2023-08-08T05:31:11;99959.81;;;12.27;86.42
11041;BME280;5573;49.592;8.662;2023-08-08T05:33:39;99961.34;;;12.41;85.92
11041;BME280;5573;49.592;8.662;2023-08-08T05:36:06;99964.22;;;12.64;84.47
11041;BME280;5573;49.592;8.662;2023-08-08T05:38:34;99965.19;;;12.88;83.83
11041;BME280;5573;49.592;8.662;2023-08-08T05:41:02;99967.28;;;13.04;82.79
11041;BME280;5573;49.592;8.662;2023-08-08T05:43:31;99964.50;;;12.99;82.89
11041;BME280;5573;49.592;8.662;2023-08-08T05:45:58;99970.63;;;12.99;83.12
11041;BME280;5573;49.592;8.662;2023-08-08T05:48:26;99976.34;;;13.03;82.66
11041;BME280;5573;49.592;8.662;2023-08-08T05:50:54;99972.72;;;12.97;82.98
11041;BME280;5573;49.592;8.662;2023-08-08T05:53:25;99964.50;;;12.99;83.04
11041;BME280;5573;49.592;8.662;2023-08-08T05:55:52;99970.34;;;13.07;82.62
11041;BME280;5573;49.592;8.662;2023-08-08T05:58:20;99967.59;;;13.14;81.60
11041;BME280;5573;49.592;8.662;2023-08-08T06:00:50;99947.75;;;13.03;82.91
11041;BME280;5573;49.592;8.662;2023-08-08T06:03:18;99976.41;;;13.21;82.13
11041;BME280;5573;49.592;8.662;2023-08-08T06:05:45;99976.22;;;13.34;81.90
11041;BME280;5573;49.592;8.662;2023-08-08T06:08:13;99973.34;;;13.36;81.76
11041;BME280;5573;49.592;8.662;2023-08-08T06:10:43;99976.13;;;13.41;81.60
11041;BME280;5573;49.592;8.662;2023-08-08T06:13:10;99981.25;;;13.60;79.61
11041;BME280;5573;49.592;8.662;2023-08-08T06:15:38;99974.75;;;13.68;79.89
11041;BME280;5573;49.592;8.662;2023-08-08T06:18:07;99974.97;;;13.67;80.30
11041;BME280;5573;49.592;8.662;2023-08-08T06:20:36;99972.81;;;13.75;79.60
11041;BME280;5573;49.592;8.662;2023-08-08T06:23:04;99987.16;;;13.81;80.29
11041;BME280;5573;49.592;8.662;2023-08-08T06:25:31;99978.88;;;13.82;79.42
11041;BME280;5573;49.592;8.662;2023-08-08T06:27:59;99972.25;;;13.85;78.76
11041;BME280;5573;49.592;8.662;2023-08-08T06:30:27;99981.03;;;14.03;79.54
11041;BME280;5573;49.592;8.662;2023-08-08T06:32:55;99979.78;;;14.06;78.37
11041;BME280;5573;49.592;8.662;2023-08-08T06:35:24;99983.41;;;14.12;78.88
11041;BME280;5573;49.592;8.662;2023-08-08T06:37:52;99987.50;;;14.26;76.90
11041;BME280;5573;49.592;8.662;2023-08-08T06:40:20;99992.69;;;14.39;77.79
11041;BME280;5573;49.592;8.662;2023-08-08T06:42:48;99980.31;;;14.38;77.65
11041;BME280;5573;49.592;8.662;2023-08-08T06:45:16;99980.00;;;14.57;75.71
11041;BME280;5573;49.592;8.662;2023-08-08T06:47:45;99983.72;;;14.45;77.68
11041;BME280;5573;49.592;8.662;2023-08-08T06:50:13;99980.00;;;14.46;77.41
11041;BME280;5573;49.592;8.662;2023-08-08T06:52:43;99987.78;;;14.59;76.04
11041;BME280;5573;49.592;8.662;2023-08-08T06:55:11;99986.66;;;14.43;76.99
11041;BME280;5573;49.592;8.662;2023-08-08T06:57:39;99981.75;;;14.64;76.42
11041;BME280;5573;49.592;8.662;2023-08-08T07:00:08;99983.03;;;14.61;77.39
11041;BME280;5573;49.592;8.662;2023-08-08T07:02:38;99978.38;;;14.56;77.13
11041;BME280;5573;49.592;8.662;2023-08-08T07:05:07;99982.34;;;14.66;76.30
11041;BME280;5573;49.592;8.662;2023-08-08T07:07:36;99980.91;;;14.63;74.86
11041;BME280;5573;49.592;8.662;2023-08-08T07:10:07;99988.88;;;14.81;76.28
11041;BME280;5573;49.592;8.662;2023-08-08T07:12:36;99978.38;;;14.80;76.23
11041;BME280;5573;49.592;8.662;2023-08-08T07:15:06;99974.34;;;15.17;73.68
11041;BME280;5573;49.592;8.662;2023-08-08T07:17:35;99976.41;;;15.38;72.65
11041;BME280;5573;49.592;8.662;2023-08-08T07:20:04;99975.97;;;15.70;72.09
11041;BME280;5573;49.592;8.662;2023-08-08T07:22:32;99978.47;;;15.88;71.79
11041;BME280;5573;49.592;8.662;2023-08-08T07:25:00;99976.47;;;16.28;69.52
11041;BME280;5573;49.592;8.662;2023-08-08T07:27:29;99979.50;;;16.65;69.35
11041;BME280;5573;49.592;8.662;2023-08-08T07:29:57;99968.88;;;17.14;67.38
11041;BME280;5573;49.592;8.662;2023-08-08T07:32:25;99971.78;;;17.29;66.22
11041;BME280;5573;49.592;8.662;2023-08-08T07:34:54;99971.38;;;17.20;66.80
11041;BME280;5573;49.592;8.662;2023-08-08T07:37:22;99970.69;;;17.52;66.82
11041;BME280;5573;49.592;8.662;2023-08-08T07:39:50;99973.09;;;18.28;61.92
11041;BME280;5573;49.592;8.662;2023-08-08T07:42:19;99966.38;;;17.99;64.39
11041;BME280;5573;49.592;8.662;2023-08-08T07:44:48;99964.09;;;19.38;59.80
11041;BME280;5573;49.592;8.662;2023-08-08T07:47:15;99969.91;;;19.05;59.97
11041;BME280;5573;49.592;8.662;2023-08-08T07:49:43;99965.72;;;18.51;63.89
11041;BME280;5573;49.592;8.662;2023-08-08T07:52:11;99964.31;;;18.38;62.29
11041;BME280;5573;49.592;8.662;2023-08-08T07:54:39;99957.81;;;18.71;60.07
11041;BME280;5573;49.592;8.662;2023-08-08T07:57:06;99956.31;;;18.95;59.39
11041;BME280;5573;49.592;8.662;2023-08-08T07:59:34;99953.00;;;18.46;59.26
11041;BME280;5573;49.592;8.662;2023-08-08T08:02:04;99953.97;;;17.98;60.97
11041;BME280;5573;49.592;8.662;2023-08-08T08:04:32;99952.28;;;18.19;59.91
11041;BME280;5573;49.592;8.662;2023-08-08T08:07:01;99954.00;;;18.03;59.38
11041;BME280;5573;49.592;8.662;2023-08-08T08:09:28;99949.06;;;18.22;60.94
11041;BME280;5573;49.592;8.662;2023-08-08T08:11:56;99957.69;;;18.24;57.37
11041;BME280;5573;49.592;8.662;2023-08-08T08:14:24;99910.69;;;17.56;55.69
11041;BME280;5573;49.592;8.662;2023-08-08T08:16:52;99948.94;;;17.80;57.10
11041;BME280;5573;49.592;8.662;2023-08-08T08:19:21;99952.72;;;17.79;58.86
11041;BME280;5573;49.592;8.662;2023-08-08T08:21:49;99954.94;;;17.87;56.48
11041;BME280;5573;49.592;8.662;2023-08-08T08:24:17;99947.69;;;18.19;57.12
11041;BME280;5573;49.592;8.662;2023-08-08T08:26:45;99947.84;;;18.39;56.02
11041;BME280;5573;49.592;8.662;2023-08-08T08:29:12;99945.72;;;18.10;56.70
11041;BME280;5573;49.592;8.662;2023-08-08T08:31:40;99945.31;;;17.96;53.33
11041;BME280;5573;49.592;8.662;2023-08-08T08:34:08;99939.78;;;17.81;57.09
11041;BME280;5573;49.592;8.662;2023-08-08T08:36:37;99958.88;;;18.01;57.81
11041;BME280;5573;49.592;8.662;2023-08-08T08:39:05;99907.47;;;17.81;55.51
11041;BME280;5573;49.592;8.662;2023-08-08T08:41:35;99921.69;;;17.76;57.12
11041;BME280;5573;49.592;8.662;2023-08-08T08:44:03;99949.97;;;18.01;57.16
11041;BME280;5573;49.592;8.662;2023-08-08T08:46:32;99930.22;;;17.95;54.97
11041;BME280;5573;49.592;8.662;2023-08-08T08:49:02;99952.09;;;18.30;56.93
11041;BME280;5573;49.592;8.662;2023-08-08T08:51:31;99950.06;;;18.48;54.22
11041;BME280;5573;49.592;8.662;2023-08-08T08:54:00;99950.50;;;18.34;54.84
11041;BME280;5573;49.592;8.662;2023-08-08T08:56:28;99946.38;;;18.59;55.36
11041;BME280;5573;49.592;8.662;2023-08-08T08:58:57;99948.28;;;18.58;54.19
11041;BME280;5573;49.592;8.662;2023-08-08T09:01:24;99946.63;;;18.52;55.48
11041;BME280;5573;49.592;8.662;2023-08-08T09:03:53;99936.00;;;18.77;53.04
11041;BME280;5573;49.592;8.662;2023-08-08T09:06:23;99935.59;;;18.59;55.90
11041;BME280;5573;49.592;8.662;2023-08-08T09:08:51;99932.41;;;18.67;52.49
11041;BME280;5573;49.592;8.662;2023-08-08T09:11:31;99925.50;;;18.86;50.62
11041;BME280;5573;49.592;8.662;2023-08-08T09:13:58;99932.84;;;18.96;51.75
11041;BME280;5573;49.592;8.662;2023-08-08T09:16:27;99920.47;;;19.10;53.00
11041;BME280;5573;49.592;8.662;2023-08-08T09:18:54;99925.97;;;18.73;51.73
11041;BME280;5573;49.592;8.662;2023-08-08T09:21:22;99924.44;;;18.87;51.08
11041;BME280;5573;49.592;8.662;2023-08-08T09:23:50;99930.06;;;18.75;50.94
11041;BME280;5573;49.592;8.662;2023-08-08T09:26:18;99920.97;;;18.97;50.54
11041;BME280;5573;49.592;8.662;2023-08-08T09:28:47;99919.53;;;18.79;50.00
11041;BME280;5573;49.592;8.662;2023-08-08T09:31:16;99911.66;;;19.39;49.52
11041;BME280;5573;49.592;8.662;2023-08-08T09:33:43;99914.19;;;19.56;47.13
11041;BME280;5573;49.592;8.662;2023-08-08T09:36:15;99915.06;;;19.87;48.06
11041;BME280;5573;49.592;8.662;2023-08-08T09:38:43;99922.09;;;20.03;47.95
11041;BME280;5573;49.592;8.662;2023-08-08T09:41:12;99909.09;;;20.00;45.53
11041;BME280;5573;49.592;8.662;2023-08-08T09:43:43;99905.59;;;19.90;44.33
11041;BME280;5573;49.592;8.662;2023-08-08T09:46:12;99906.69;;;19.94;45.17
11041;BME280;5573;49.592;8.662;2023-08-08T09:48:41;99894.22;;;19.93;45.34
11041;BME280;5573;49.592;8.662;2023-08-08T09:51:09;99903.69;;;20.10;44.18
11041;BME280;5573;49.592;8.662;2023-08-08T09:53:36;99912.34;;;20.53;45.13
11041;BME280;5573;49.592;8.662;2023-08-08T09:56:05;99906.94;;;20.53;45.40
11041;BME280;5573;49.592;8.662;2023-08-08T09:58:34;99899.00;;;20.81;46.10
11041;BME280;5573;49.592;8.662;2023-08-08T10:01:02;99895.97;;;21.13;46.48
11041;BME280;5573;49.592;8.662;2023-08-08T10:03:32;99898.19;;;20.81;44.78
11041;BME280;5573;49.592;8.662;2023-08-08T10:06:01;99906.31;;;20.81;43.96
11041;BME280;5573;49.592;8.662;2023-08-08T10:08:30;99904.66;;;20.95;44.40
11041;BME280;5573;49.592;8.662;2023-08-08T10:10:59;99912.22;;;21.13;43.32
11041;BME280;5573;49.592;8.662;2023-08-08T10:13:27;99898.09;;;21.21;42.20
11041;BME280;5573;49.592;8.662;2023-08-08T10:15:54;99904.63;;;21.10;44.28
11041;BME280;5573;49.592;8.662;2023-08-08T10:18:23;99894.59;;;21.11;43.62
11041;BME280;5573;49.592;8.662;2023-08-08T10:20:52;99897.56;;;21.14;43.42
11041;BME280;5573;49.592;8.662;2023-08-08T10:23:20;99898.53;;;21.39;44.52
11041;BME280;5573;49.592;8.662;2023-08-08T10:25:50;99905.91;;;21.72;46.17
11041;BME280;5573;49.592;8.662;2023-08-08T10:28:20;99906.66;;;21.44;43.72
11041;BME280;5573;49.592;8.662;2023-08-08T10:30:55;99893.09;;;21.39;45.91
11041;BME280;5573;49.592;8.662;2023-08-08T10:33:25;99899.03;;;21.46;44.27
11041;BME280;5573;49.592;8.662;2023-08-08T10:36:02;99894.00;;;21.68;45.08
11041;BME280;5573;49.592;8.662;2023-08-08T10:38:40;99899.31;;;21.88;45.39
11041;BME280;5573;49.592;8.662;2023-08-08T10:41:11;99901.25;;;21.39;43.32
11041;BME280;5573;49.592;8.662;2023-08-08T10:43:48;99883.09;;;21.39;43.60
11041;BME280;5573;49.592;8.662;2023-08-08T10:46:23;99887.81;;;21.08;42.58
11041;BME280;5573;49.592;8.662;2023-08-08T10:48:51;99877.91;;;21.43;44.61
11041;BME280;5573;49.592;8.662;2023-08-08T10:51:21;99889.91;;;21.70;45.58
11041;BME280;5573;49.592;8.662;2023-08-08T10:53:51;99881.88;;;21.99;43.13
11041;BME280;5573;49.592;8.662;2023-08-08T10:56:20;99880.63;;;22.15;43.24
11041;BME280;5573;49.592;8.662;2023-08-08T10:58:50;99887.41;;;22.47;42.43
11041;BME280;5573;49.592;8.662;2023-08-08T11:01:18;99879.84;;;22.73;43.52
11041;BME280;5573;49.592;8.662;2023-08-08T11:03:47;99881.13;;;22.22;43.09
11041;BME280;5573;49.592;8.662;2023-08-08T11:06:16;99882.16;;;21.98;43.40
11041;BME280;5573;49.592;8.662;2023-08-08T11:08:46;99879.59;;;22.40;43.32
11041;BME280;5573;49.592;8.662;2023-08-08T11:11:16;99872.16;;;22.51;43.45
11041;BME280;5573;49.592;8.662;2023-08-08T11:13:44;99878.69;;;21.92;44.08
11041;BME280;5573;49.592;8.662;2023-08-08T11:16:12;99871.38;;;21.88;43.47
11041;BME280;5573;49.592;8.662;2023-08-08T11:18:41;99875.81;;;22.07;44.71
11041;BME280;5573;49.592;8.662;2023-08-08T11:21:10;99875.28;;;22.10;43.25
11041;BME280;5573;49.592;8.662;2023-08-08T11:23:47;99877.00;;;21.96;43.73
11041;BME280;5573;49.592;8.662;2023-08-08T11:26:17;99873.03;;;22.17;43.41
11041;BME280;5573;49.592;8.662;2023-08-08T11:28:50;99875.06;;;22.31;42.46
11041;BME280;5573;49.592;8.662;2023-08-08T11:31:18;99868.25;;;22.62;41.37
11041;BME280;5573;49.592;8.662;2023-08-08T11:33:47;99879.88;;;22.39;41.85
11041;BME280;5573;49.592;8.662;2023-08-08T11:36:16;99881.22;;;22.12;42.19
11041;BME280;5573;49.592;8.662;2023-08-08T11:38:44;99868.13;;;22.19;43.09
11041;BME280;5573;49.592;8.662;2023-08-08T11:41:15;99867.75;;;22.31;43.05
11041;BME280;5573;49.592;8.662;2023-08-08T11:43:44;99867.75;;;22.31;41.26
11041;BME280;5573;49.592;8.662;2023-08-08T11:46:13;99877.31;;;22.23;42.48
11041;BME280;5573;49.592;8.662;2023-08-08T11:48:41;99869.31;;;22.08;42.33
11041;BME280;5573;49.592;8.662;2023-08-08T11:51:09;99864.69;;;22.09;42.46
11041;BME280;5573;49.592;8.662;2023-08-08T11:53:48;99861.28;;;21.98;40.73
11041;BME280;5573;49.592;8.662;2023-08-08T11:56:18;99843.09;;;21.99;43.51
11041;BME280;5573;49.592;8.662;2023-08-08T11:58:47;99856.03;;;22.07;42.47
11041;BME280;5573;49.592;8.662;2023-08-08T12:01:19;99830.38;;;21.89;42.65
11041;BME280;5573;49.592;8.662;2023-08-08T12:03:47;99849.03;;;22.30;43.41
11041;BME280;5573;49.592;8.662;2023-08-08T12:06:15;99844.75;;;22.23;43.68
11041;BME280;5573;49.592;8.662;2023-08-08T12:08:45;99860.19;;;22.52;42.24
11041;BME280;5573;49.592;8.662;2023-08-08T12:11:14;99834.75;;;22.19;40.23
11041;BME280;5573;49.592;8.662;2023-08-08T12:13:44;99843.94;;;22.23;40.22
11041;BME280;5573;49.592;8.662;2023-08-08T12:16:13;99851.34;;;22.41;41.57
11041;BME280;5573;49.592;8.662;2023-08-08T12:18:44;99839.09;;;22.73;40.40
11041;BME280;5573;49.592;8.662;2023-08-08T12:21:12;99843.06;;;22.80;40.63
11041;BME280;5573;49.592;8.662;2023-08-08T12:23:39;99847.00;;;22.69;39.22
11041;BME280;5573;49.592;8.662;2023-08-08T12:26:07;99857.88;;;22.69;40.51
11041;BME280;5573;49.592;8.662;2023-08-08T12:28:36;99848.13;;;23.10;39.43
11041;BME280;5573;49.592;8.662;2023-08-08T12:31:05;99839.81;;;22.78;39.86
11041;BME280;5573;49.592;8.662;2023-08-08T12:33:33;99849.09;;;22.77;39.61
11041;BME280;5573;49.592;8.662;2023-08-08T12:36:01;99847.78;;;22.93;38.66
11041;BME280;5573;49.592;8.662;2023-08-08T12:38:29;99840.00;;;22.87;41.54
11041;BME280;5573;49.592;8.662;2023-08-08T12:40:57;99831.84;;;22.87;38.27
11041;BME280;5573;49.592;8.662;2023-08-08T12:43:24;99831.84;;;22.87;38.84
11041;BME280;5573;49.592;8.662;2023-08-08T12:45:52;99834.28;;;22.88;38.67
11041;BME280;5573;49.592;8.662;2023-08-08T12:48:21;99836.97;;;22.69;39.07
11041;BME280;5573;49.592;8.662;2023-08-08T12:50:49;99842.19;;;22.61;39.99
11041;BME280;5573;49.592;8.662;2023-08-08T12:53:17;99841.84;;;22.44;39.13
11041;BME280;5573;49.592;8.662;2023-08-08T12:55:45;99844.84;;;22.42;38.69
11041;BME280;5573;49.592;8.662;2023-08-08T12:58:12;99838.28;;;22.67;40.20
11041;BME280;5573;49.592;8.662;2023-08-08T13:00:40;99833.03;;;22.81;36.77
11041;BME280;5573;49.592;8.662;2023-08-08T13:03:08;99832.41;;;22.60;39.16
11041;BME280;5573;49.592;8.662;2023-08-08T13:05:38;99755.97;;;22.00;39.97
11041;BME280;5573;49.592;8.662;2023-08-08T13:08:06;99824.19;;;22.17;38.92
11041;BME280;5573;49.592;8.662;2023-08-08T13:10:35;99827.31;;;22.30;39.24
11041;BME280;5573;49.592;8.662;2023-08-08T13:13:03;99827.84;;;22.32;39.93
11041;BME280;5573;49.592;8.662;2023-08-08T13:15:31;99826.06;;;22.22;39.23
11041;BME280;5573;49.592;8.662;2023-08-08T13:17:59;99819.66;;;22.08;38.35